Time;durP1;ratioP1;P1;durP2;ratioP2;P2;SDS_P1;SDS_P2;PMS_P1;PMS_P2;Temp;Humidity;BMP_temperature;BMP_pressure;BME280_temperature;BME280_humidity;BME280_pressure;Samples;Min_cycle;Max_cycle;Signal;HPM_P1;HPM_P2
2021/07/22 00:01:40;;;;;;;;;;;;;;;27.43;43.77;101107.75;5099288;28;1225;-65
2021/07/22 00:04:06;;;;;;;;;;;;;;;27.44;43.41;101096.91;5102743;28;1216;-65
2021/07/22 00:06:33;;;;;;;;;;;;;;;27.47;44.58;101101.16;5095218;28;1201;-64
2021/07/22 00:09:00;;;;;;;;;;;;;;;27.50;45.53;101093.69;5093614;28;1266;-64
2021/07/22 00:11:26;;;;;;;;;;;;;;;27.43;45.39;101097.03;5076080;28;1512;-64
2021/07/22 00:13:53;;;;;;;;;;;;;;;27.37;44.73;101101.06;5099683;28;1255;-64
2021/07/22 00:16:20;;;;;;;;;;;;;;;27.36;45.26;101091.34;5098263;28;2217;-64
2021/07/22 00:18:47;;;;;;;;;;;;;;;27.37;44.28;101089.53;5054497;28;1366;-64
2021/07/22 00:21:13;;;;;;;;;;;;;;;27.34;44.59;101085.28;5098405;28;1176;-64
2021/07/22 00:23:40;;;;;;;;;;;;;;;27.37;44.47;101090.38;5097527;28;1277;-64
2021/07/22 00:26:07;;;;;;;;;;;;;;;27.33;43.93;101088.94;5097053;28;1184;-64
2021/07/22 00:28:33;;;;;;;;;;;;;;;27.33;44.56;101080.09;5103730;28;1357;-65
2021/07/22 00:31:00;;;;;;;;;;;;;;;27.35;45.18;101084.31;5106853;28;1164;-65
2021/07/22 00:33:27;;;;;;;;;;;;;;;27.33;44.03;101080.91;5112592;28;1299;-65
2021/07/22 00:35:54;;;;;;;;;;;;;;;27.31;44.75;101080.22;5112804;28;1979;-65
2021/07/22 00:38:20;;;;;;;;;;;;;;;27.30;43.88;101078.50;5112412;28;1225;-64
2021/07/22 00:40:47;;;;;;;;;;;;;;;27.29;44.18;101084.84;5098545;28;1172;-64
2021/07/22 00:43:14;;;;;;;;;;;;;;;27.32;44.08;101076.56;5084079;28;1302;-65
2021/07/22 00:45:41;;;;;;;;;;;;;;;27.30;43.81;101073.16;5109417;28;1207;-65
2021/07/22 00:48:07;;;;;;;;;;;;;;;27.28;43.92;101074.28;5101275;28;1452;-65
2021/07/22 00:50:34;;;;;;;;;;;;;;;27.34;45.16;101063.03;5103155;28;1359;-65
2021/07/22 00:53:01;;;;;;;;;;;;;;;27.34;46.57;101063.88;5099977;28;1132;-65
2021/07/22 00:55:28;;;;;;;;;;;;;;;27.40;44.68;101062.50;5091746;28;1937;-64
2021/07/22 00:57:55;;;;;;;;;;;;;;;27.38;44.08;101056.44;5096906;28;1192;-65
2021/07/22 01:00:22;;;;;;;;;;;;;;;27.28;43.43;101056.41;5091615;28;1220;-65
2021/07/22 01:02:49;;;;;;;;;;;;;;;27.29;44.19;101051.91;5091786;28;1267;-64
2021/07/22 01:05:16;;;;;;;;;;;;;;;27.26;44.45;101053.03;5082741;28;1644;-65
2021/07/22 01:07:43;;;;;;;;;;;;;;;27.30;44.89;101051.75;5098611;28;1200;-64
2021/07/22 01:10:09;;;;;;;;;;;;;;;27.32;45.58;101049.81;5094945;28;1327;-64
2021/07/22 01:12:36;;;;;;;;;;;;;;;27.35;44.52;101049.53;5097370;28;1034;-65
2021/07/22 01:15:03;;;;;;;;;;;;;;;27.28;43.37;101045.72;5091788;28;1914;-65
2021/07/22 01:17:40;;;;;;;;;;;;;;;27.33;45.02;101048.81;5101882;28;1137;-65
2021/07/22 01:20:17;;;;;;;;;;;;;;;27.28;44.22;101043.03;5094229;28;1299;-65
2021/07/22 01:22:45;;;;;;;;;;;;;;;27.35;45.33;101038.84;5105793;28;1762;-65
2021/07/22 01:25:12;;;;;;;;;;;;;;;27.31;44.29;101033.88;5081930;28;1192;-65
2021/07/22 01:27:39;;;;;;;;;;;;;;;27.32;44.18;101039.13;5092231;28;1157;-66
2021/07/22 01:30:06;;;;;;;;;;;;;;;27.26;44.42;101039.66;5077701;28;1295;-65
2021/07/22 01:32:33;;;;;;;;;;;;;;;27.22;44.03;101038.22;5096761;28;1004;-64
2021/07/22 01:35:00;;;;;;;;;;;;;;;27.30;45.38;101035.72;5106007;28;1914;-65
2021/07/22 01:37:26;;;;;;;;;;;;;;;27.26;44.66;101041.47;5099879;28;1157;-64
2021/07/22 01:39:53;;;;;;;;;;;;;;;27.29;45.19;101034.03;5109333;28;1377;-65
2021/07/22 01:42:20;;;;;;;;;;;;;;;27.33;45.45;101029.28;5111526;28;805;-65
2021/07/22 01:44:47;;;;;;;;;;;;;;;27.26;44.33;101042.34;5111855;28;1319;-65
2021/07/22 01:47:14;;;;;;;;;;;;;;;27.30;43.63;101034.88;5111424;28;841;-65
2021/07/22 01:49:41;;;;;;;;;;;;;;;27.23;44.05;101036.41;5099545;28;1586;-65
2021/07/22 01:52:08;;;;;;;;;;;;;;;27.24;43.98;101036.25;5097568;28;1203;-65
2021/07/22 01:54:34;;;;;;;;;;;;;;;27.28;45.15;101040.34;5100536;28;1271;-65
2021/07/22 01:57:02;;;;;;;;;;;;;;;27.33;46.62;101031.94;5100265;28;1909;-63
2021/07/22 01:59:35;;;;;;;;;;;;;;;27.31;46.00;101032.06;5074595;28;1303;-64
2021/07/22 02:02:06;;;;;;;;;;;;;;;27.25;45.02;101027.25;5072642;28;853;-65
2021/07/22 02:04:33;;;;;;;;;;;;;;;27.37;45.06;101025.31;5092126;28;1350;-64
2021/07/22 02:07:00;;;;;;;;;;;;;;;27.33;45.87;101022.06;5090543;28;1145;-65
2021/07/22 02:09:27;;;;;;;;;;;;;;;27.27;44.86;101030.63;5090872;28;1266;-64
2021/07/22 02:11:54;;;;;;;;;;;;;;;27.27;45.11;101030.63;5093318;28;1149;-64
2021/07/22 02:14:21;;;;;;;;;;;;;;;27.27;45.00;101030.63;5097011;28;1196;-64
2021/07/22 02:16:48;;;;;;;;;;;;;;;27.31;45.92;101023.19;5100874;28;1901;-65
2021/07/22 02:19:15;;;;;;;;;;;;;;;27.23;44.60;101021.22;5089060;28;1287;-65
2021/07/22 02:21:43;;;;;;;;;;;;;;;27.23;44.44;101029.22;5093050;28;1148;-65
2021/07/22 02:24:10;;;;;;;;;;;;;;;27.16;44.79;101028.06;5103137;28;1316;-65
2021/07/22 02:26:37;;;;;;;;;;;;;;;27.09;44.70;101029.59;5091031;28;1182;-65
2021/07/22 02:29:04;;;;;;;;;;;;;;;27.14;45.26;101027.38;5099244;28;1287;-64
2021/07/22 02:31:31;;;;;;;;;;;;;;;27.09;45.00;101024.22;5110216;28;1234;-65
2021/07/22 02:33:58;;;;;;;;;;;;;;;27.18;45.30;101026.09;5099543;28;1252;-65
2021/07/22 02:36:24;;;;;;;;;;;;;;;27.24;44.13;101016.72;5097394;28;2008;-65
2021/07/22 02:38:51;;;;;;;;;;;;;;;27.25;45.25;101027.25;5105416;28;1244;-65
2021/07/22 02:41:18;;;;;;;;;;;;;;;27.25;44.95;101021.91;5082048;28;1227;-65
2021/07/22 02:43:44;;;;;;;;;;;;;;;27.28;44.72;101026.97;5074311;28;1347;-64
2021/07/22 02:46:11;;;;;;;;;;;;;;;27.23;44.82;101023.88;5100687;28;1133;-65
2021/07/22 02:48:38;;;;;;;;;;;;;;;27.08;45.10;101015.34;5097752;28;1563;-65
2021/07/22 02:51:06;;;;;;;;;;;;;;;27.20;46.04;101024.16;5104270;28;1268;-65
2021/07/22 02:53:34;;;;;;;;;;;;;;;27.23;46.30;101015.88;5096101;28;1220;-65
2021/07/22 02:56:01;;;;;;;;;;;;;;;27.15;44.96;101016.53;5093515;28;1914;-65
2021/07/22 02:58:28;;;;;;;;;;;;;;;27.16;44.80;101020.03;5096851;28;1211;-65
2021/07/22 03:00:55;;;;;;;;;;;;;;;27.05;44.92;101012.13;5074387;28;1027;-64
2021/07/22 03:03:23;;;;;;;;;;;;;;;27.09;45.49;101024.22;5099376;28;1282;-64
2021/07/22 03:05:50;;;;;;;;;;;;;;;27.11;46.27;101020.44;5092076;28;1145;-64
2021/07/22 03:08:17;;;;;;;;;;;;;;;27.11;46.00;101017.75;5107121;28;1308;-65
2021/07/22 03:10:43;;;;;;;;;;;;;;;27.08;44.76;101015.34;5101043;28;1126;-65
2021/07/22 03:13:10;;;;;;;;;;;;;;;27.06;44.75;101013.81;5109369;28;1257;-65
2021/07/22 03:15:36;;;;;;;;;;;;;;;27.07;45.06;101008.34;5093746;28;1903;-65
2021/07/22 03:18:03;;;;;;;;;;;;;;;27.06;44.95;101016.47;5097606;28;1163;-65
2021/07/22 03:20:31;;;;;;;;;;;;;;;26.98;45.43;101016.31;5095541;28;1283;-64
2021/07/22 03:23:00;;;;;;;;;;;;;;;26.93;44.68;101021.22;5089020;28;1114;-64
2021/07/22 03:25:27;;;;;;;;;;;;;;;26.99;45.38;101010.00;5089284;28;1220;-65
2021/07/22 03:27:57;;;;;;;;;;;;;;;27.05;44.12;101004.94;5089182;28;1153;-64
2021/07/22 03:30:23;;;;;;;;;;;;;;;27.01;44.21;101013.38;5069940;28;1290;-65
2021/07/22 03:32:50;;;;;;;;;;;;;;;27.01;44.53;101021.41;5094880;28;1208;-64
2021/07/22 03:35:17;;;;;;;;;;;;;;;27.02;43.86;101012.41;5089468;28;1290;-66
2021/07/22 03:37:43;;;;;;;;;;;;;;;27.00;44.34;101020.53;5098359;28;1980;-65
2021/07/22 03:40:10;;;;;;;;;;;;;;;27.06;44.75;101016.47;5094943;28;1275;-65
2021/07/22 03:42:37;;;;;;;;;;;;;;;27.09;44.72;101017.06;5101897;28;1172;-65
2021/07/22 03:45:04;;;;;;;;;;;;;;;27.06;44.41;101016.47;5095343;28;1298;-65
2021/07/22 03:47:30;;;;;;;;;;;;;;;27.05;44.56;101018.31;5091514;28;1095;-65
2021/07/22 03:49:57;;;;;;;;;;;;;;;27.03;44.51;101019.41;5088625;28;1250;-65
2021/07/22 03:52:24;;;;;;;;;;;;;;;27.07;44.58;101019.03;5076723;28;1216;-65
2021/07/22 03:54:50;;;;;;;;;;;;;;;27.04;44.37;101013.09;5091144;28;1220;-65
2021/07/22 03:57:17;;;;;;;;;;;;;;;27.03;45.47;101011.41;5080719;28;1984;-65
2021/07/22 03:59:45;;;;;;;;;;;;;;;26.98;44.31;101008.28;5105200;28;1254;-65
2021/07/22 04:02:11;;;;;;;;;;;;;;;26.95;44.39;101024.59;5102004;28;1136;-65
2021/07/22 04:04:38;;;;;;;;;;;;;;;26.90;44.32;101021.50;5098019;28;1369;-65
2021/07/22 04:07:05;;;;;;;;;;;;;;;26.93;44.25;101022.06;5089805;28;1177;-65
2021/07/22 04:09:31;;;;;;;;;;;;;;;27.03;44.27;101024.78;5102101;28;1220;-65
2021/07/22 04:11:58;;;;;;;;;;;;;;;26.97;44.71;101022.63;5102929;28;1071;-64
2021/07/22 04:14:25;;;;;;;;;;;;;;;27.03;43.91;101025.63;5099046;28;1275;-64
2021/07/22 04:16:51;;;;;;;;;;;;;;;27.03;44.51;101022.94;5102757;28;1975;-65
2021/07/22 04:19:18;;;;;;;;;;;;;;;26.97;44.18;101027.97;5090590;28;1294;-65
2021/07/22 04:21:46;;;;;;;;;;;;;;;26.80;44.71;101023.25;5095042;28;1247;-64
2021/07/22 04:24:12;;;;;;;;;;;;;;;26.93;43.81;101027.41;5078495;28;1244;-63
2021/07/22 04:26:39;;;;;;;;;;;;;;;26.87;44.42;101032.47;5102673;28;1102;-64
2021/07/22 04:29:06;;;;;;;;;;;;;;;26.84;43.90;101028.19;5098812;28;1285;-64
2021/07/22 04:31:32;;;;;;;;;;;;;;;26.81;43.83;101027.63;5100515;28;1169;-66
2021/07/22 04:33:59;;;;;;;;;;;;;;;26.84;43.84;101027.38;5095367;28;1375;-63
2021/07/22 04:36:26;;;;;;;;;;;;;;;26.83;44.26;101026.53;5094313;28;1913;-63
2021/07/22 04:38:52;;;;;;;;;;;;;;;26.80;44.29;101031.28;5098665;28;1382;-63
2021/07/22 04:41:19;;;;;;;;;;;;;;;26.91;43.89;101032.03;5098082;28;1213;-63
2021/07/22 04:43:46;;;;;;;;;;;;;;;26.89;44.40;101041.19;5088298;28;1358;-63
2021/07/22 04:46:12;;;;;;;;;;;;;;;26.78;44.61;101039.38;5088287;28;1174;-64
2021/07/22 04:48:39;;;;;;;;;;;;;;;26.70;44.26;101033.00;5087061;28;1467;-63
2021/07/22 04:51:06;;;;;;;;;;;;;;;26.77;43.93;101044.88;5097370;28;1200;-62
2021/07/22 04:53:34;;;;;;;;;;;;;;;26.85;44.94;101043.25;5073708;28;1382;-64
2021/07/22 04:56:01;;;;;;;;;;;;;;;26.76;44.29;101044.03;5097732;28;1918;-63
2021/07/22 04:58:27;;;;;;;;;;;;;;;26.77;44.03;101042.19;5095033;28;1259;-62
2021/07/22 05:00:54;;;;;;;;;;;;;;;26.80;44.52;101050.00;5096688;28;1138;-64
2021/07/22 05:03:21;;;;;;;;;;;;;;;26.81;44.41;101044.50;5099200;28;1363;-64
2021/07/22 05:05:48;;;;;;;;;;;;;;;26.82;44.57;101048.03;5099758;28;1134;-63
2021/07/22 05:08:14;;;;;;;;;;;;;;;26.74;44.31;101047.81;5096068;28;1371;-63
2021/07/22 05:10:41;;;;;;;;;;;;;;;26.74;44.52;101050.47;5075101;28;1220;-64
2021/07/22 05:13:08;;;;;;;;;;;;;;;26.71;44.41;101046.25;5078760;28;1696;-64
2021/07/22 05:15:34;;;;;;;;;;;;;;;26.80;44.63;101048.16;5084801;28;1331;-63
2021/07/22 05:18:01;;;;;;;;;;;;;;;26.73;44.15;101051.44;5105335;28;1981;-64
2021/07/22 05:20:28;;;;;;;;;;;;;;;26.85;45.05;101050.44;5107565;28;1252;-64
2021/07/22 05:22:54;;;;;;;;;;;;;;;26.77;44.45;101053.75;5111419;28;1259;-64
2021/07/22 05:25:21;;;;;;;;;;;;;;;26.74;43.95;101055.81;5097364;28;1249;-64
2021/07/22 05:27:47;;;;;;;;;;;;;;;26.75;44.47;101052.19;5106019;28;1153;-64
2021/07/22 05:30:14;;;;;;;;;;;;;;;26.76;44.22;101051.19;5084046;28;1357;-63
2021/07/22 05:32:42;;;;;;;;;;;;;;;26.86;44.79;101057.47;5091504;28;1099;-64
2021/07/22 05:35:11;;;;;;;;;;;;;;;26.78;44.45;101054.59;5098062;28;1256;-64
2021/07/22 05:37:37;;;;;;;;;;;;;;;26.81;44.97;101059.72;5101357;28;1977;-64
2021/07/22 05:40:04;;;;;;;;;;;;;;;26.85;44.47;101055.78;5106593;28;1362;-64
2021/07/22 05:42:31;;;;;;;;;;;;;;;26.83;45.31;101057.75;5101301;28;1140;-64
2021/07/22 05:44:57;;;;;;;;;;;;;;;26.86;45.06;101057.47;5106318;28;1341;-65
2021/07/22 05:47:24;;;;;;;;;;;;;;;26.86;44.97;101052.97;5101734;28;1119;-65
2021/07/22 05:49:51;;;;;;;;;;;;;;;26.84;45.21;101060.25;5104221;28;1268;-64
2021/07/22 05:52:17;;;;;;;;;;;;;;;26.91;45.26;101055.25;5087177;28;1352;-64
2021/07/22 05:54:45;;;;;;;;;;;;;;;26.92;44.92;101063.16;5098741;28;1228;-64
2021/07/22 05:57:12;;;;;;;;;;;;;;;26.90;44.15;101066.94;5094399;28;1905;-65
2021/07/22 05:59:38;;;;;;;;;;;;;;;26.95;43.94;101062.88;5091050;28;1542;-65
2021/07/22 06:02:07;;;;;;;;;;;;;;;26.95;43.92;101070.06;5094031;28;1157;-64
2021/07/22 06:04:35;;;;;;;;;;;;;;;26.95;44.47;101068.22;5097773;28;1223;-65
2021/07/22 06:07:03;;;;;;;;;;;;;;;26.98;45.72;101067.97;5097243;28;1402;-64
2021/07/22 06:09:30;;;;;;;;;;;;;;;26.97;44.75;101070.75;5095838;28;1395;-64
2021/07/22 06:11:56;;;;;;;;;;;;;;;27.02;44.58;101068.53;5091017;28;1137;-64
2021/07/22 06:14:23;;;;;;;;;;;;;;;27.06;43.88;101070.81;5054306;28;1264;-64
2021/07/22 06:16:50;;;;;;;;;;;;;;;27.10;44.22;101071.38;5104962;28;1910;-65
2021/07/22 06:19:17;;;;;;;;;;;;;;;27.08;43.93;101068.84;5097221;28;1280;-65
2021/07/22 06:21:43;;;;;;;;;;;;;;;27.09;43.74;101075.03;5100924;28;1145;-65
2021/07/22 06:24:10;;;;;;;;;;;;;;;27.13;43.39;101073.78;5092818;28;1354;-67
2021/07/22 06:26:37;;;;;;;;;;;;;;;27.16;43.62;101070.84;5092972;28;1086;-65
2021/07/22 06:29:04;;;;;;;;;;;;;;;27.19;43.58;101075.09;5099589;28;1275;-67
2021/07/22 06:31:30;;;;;;;;;;;;;;;27.19;43.80;101067.91;5103197;28;1133;-67
2021/07/22 06:33:57;;;;;;;;;;;;;;;27.22;43.90;101072.13;5077082;28;1353;-67
2021/07/22 06:36:24;;;;;;;;;;;;;;;27.26;43.49;101077.09;5101253;28;1925;-67
2021/07/22 06:38:51;;;;;;;;;;;;;;;27.30;43.97;101070.47;5102322;28;1272;-66
2021/07/22 06:41:21;;;;;;;;;;;;;;;27.26;43.61;101077.09;5102273;28;1144;-65
2021/07/22 06:43:48;;;;;;;;;;;;;;;27.30;43.69;101073.16;5093519;28;1200;-67
2021/07/22 06:46:15;;;;;;;;;;;;;;;27.31;43.65;101080.22;5101915;28;1252;-66
2021/07/22 06:48:42;;;;;;;;;;;;;;;27.33;43.65;101074.75;5087305;28;1475;-66
2021/07/22 06:51:09;;;;;;;;;;;;;;;27.37;44.37;101082.34;5095721;28;1188;-66
2021/07/22 06:53:35;;;;;;;;;;;;;;;27.38;44.41;101072.50;5100421;28;1342;-66
2021/07/22 06:56:05;;;;;;;;;;;;;;;27.38;44.37;101073.34;5103894;28;1216;-65
2021/07/22 06:58:34;;;;;;;;;;;;;;;27.41;44.20;101074.91;5098760;28;1898;-67
2021/07/22 07:01:01;;;;;;;;;;;;;;;27.39;43.71;101080.38;5088752;28;1220;-65
2021/07/22 07:03:28;;;;;;;;;;;;;;;27.40;43.34;101076.72;5091420;28;1346;-63
2021/07/22 07:05:54;;;;;;;;;;;;;;;27.43;43.38;101089.84;5089367;28;1121;-66
2021/07/22 07:08:21;;;;;;;;;;;;;;;27.44;42.92;101080.88;5101413;28;1279;-66
2021/07/22 07:10:48;;;;;;;;;;;;;;;27.42;42.34;101082.81;5086322;28;1306;-67
2021/07/22 07:13:14;;;;;;;;;;;;;;;27.45;42.56;101085.22;5103292;28;1290;-68
2021/07/22 07:15:41;;;;;;;;;;;;;;;27.44;42.24;101077.34;5095848;28;1181;-67
2021/07/22 07:18:08;;;;;;;;;;;;;;;27.47;42.40;101079.75;5096750;28;1973;-68
2021/07/22 07:20:35;;;;;;;;;;;;;;;27.49;41.92;101073.25;5108171;28;1354;-66
2021/07/22 07:23:02;;;;;;;;;;;;;;;27.48;42.29;101076.09;5079059;28;1233;-66
2021/07/22 07:25:29;;;;;;;;;;;;;;;27.50;41.91;101079.47;5068810;28;1609;-66
2021/07/22 07:27:55;;;;;;;;;;;;;;;27.50;42.36;101069.63;5062373;28;1310;-65
2021/07/22 07:30:22;;;;;;;;;;;;;;;27.52;42.45;101078.34;5095077;28;1308;-65
2021/07/22 07:32:51;;;;;;;;;;;;;;;27.48;43.32;101066.22;5098215;28;1200;-64
2021/07/22 07:35:18;;;;;;;;;;;;;;;27.53;43.74;101072.03;5078109;28;1600;-64
2021/07/22 07:37:45;;;;;;;;;;;;;;;27.55;44.05;101079.91;5095922;28;1910;-64
2021/07/22 07:40:12;;;;;;;;;;;;;;;27.55;43.42;101078.06;5093989;28;1279;-66
2021/07/22 07:42:39;;;;;;;;;;;;;;;27.54;42.15;101080.91;5108038;28;1074;-64
2021/07/22 07:45:06;;;;;;;;;;;;;;;27.64;40.56;101084.44;5109307;28;1299;-67
2021/07/22 07:47:33;;;;;;;;;;;;;;;27.65;40.57;101084.31;5090658;28;1038;-68
2021/07/22 07:50:00;;;;;;;;;;;;;;;27.63;41.55;101083.56;5073800;28;1215;-66
2021/07/22 07:52:29;;;;;;;;;;;;;;;27.64;41.48;101082.59;5093235;28;1260;-66
2021/07/22 07:54:56;;;;;;;;;;;;;;;27.64;42.31;101079.94;5087703;28;1232;-68
2021/07/22 07:57:23;;;;;;;;;;;;;;;27.67;41.84;101090.34;5082415;28;2020;-67
2021/07/22 07:59:50;;;;;;;;;;;;;;;27.72;41.86;101081.94;5074575;28;1295;-67
2021/07/22 08:02:16;;;;;;;;;;;;;;;27.73;41.32;101082.75;5090598;28;1666;-67
2021/07/22 08:04:44;;;;;;;;;;;;;;;27.75;41.25;101080.81;5086333;28;1294;-63
2021/07/22 08:07:11;;;;;;;;;;;;;;;27.71;43.06;101082.91;5096369;28;977;-62
2021/07/22 08:09:38;;;;;;;;;;;;;;;27.71;43.02;101082.91;5092049;28;1292;-64
2021/07/22 08:12:05;;;;;;;;;;;;;;;27.71;42.92;101082.91;5086653;28;1354;-64
2021/07/22 08:14:36;;;;;;;;;;;;;;;27.75;42.09;101086.16;5075110;28;1332;-67
2021/07/22 08:17:05;;;;;;;;;;;;;;;27.79;42.00;101082.19;5094830;28;2320;-63
2021/07/22 08:19:32;;;;;;;;;;;;;;;27.77;43.18;101084.19;5095313;28;1310;-63
2021/07/22 08:22:00;;;;;;;;;;;;;;;27.76;41.87;101079.81;5094797;28;1165;-63
2021/07/22 08:24:26;;;;;;;;;;;;;;;27.76;43.40;101079.81;5091385;28;1414;-63
2021/07/22 08:26:53;;;;;;;;;;;;;;;27.76;43.31;101082.47;5080766;28;1584;-62
2021/07/22 08:29:20;;;;;;;;;;;;;;;27.76;42.99;101082.47;5078183;28;1437;-62
2021/07/22 08:31:47;;;;;;;;;;;;;;;27.77;43.39;101086.84;5099366;28;1161;-62
2021/07/22 08:34:16;;;;;;;;;;;;;;;27.76;43.66;101086.00;5095439;28;1252;-65
2021/07/22 08:36:43;;;;;;;;;;;;;;;27.78;42.85;101080.53;5099695;28;1918;-65
2021/07/22 08:39:10;;;;;;;;;;;;;;;27.81;43.56;101090.97;5077056;28;1257;-65
2021/07/22 08:41:41;;;;;;;;;;;;;;;27.83;42.76;101083.63;5087827;28;1002;-64
2021/07/22 08:44:08;;;;;;;;;;;;;;;27.82;43.12;101084.59;5085809;28;1259;-64
2021/07/22 08:46:39;;;;;;;;;;;;;;;27.81;43.85;101082.94;5076314;28;1134;-63
2021/07/22 08:49:06;;;;;;;;;;;;;;;27.83;43.43;101084.47;5105358;28;1487;-64
2021/07/22 08:51:33;;;;;;;;;;;;;;;27.87;42.68;101083.22;5074803;28;1035;-63
2021/07/22 08:54:00;;;;;;;;;;;;;;;27.88;42.94;101081.38;5089499;28;1260;-64
2021/07/22 08:56:28;;;;;;;;;;;;;;;27.88;43.25;101082.22;5100913;28;1177;-64
2021/07/22 08:58:55;;;;;;;;;;;;;;;27.89;43.29;101080.41;5098636;28;1910;-64
2021/07/22 09:01:28;;;;;;;;;;;;;;;27.89;43.18;101080.41;5085299;28;1455;-63
2021/07/22 09:03:58;;;;;;;;;;;;;;;27.89;43.40;101080.41;5078698;28;1377;-64
2021/07/22 09:06:27;;;;;;;;;;;;;;;27.90;43.35;101082.09;5081282;28;1098;-64
2021/07/22 09:08:57;;;;;;;;;;;;;;;27.93;43.85;101090.72;5085194;28;1370;-64
2021/07/22 09:11:30;;;;;;;;;;;;;;;27.92;43.53;101088.16;5093846;28;1121;-63
2021/07/22 09:14:19;;;;;;;;;;;;;;;27.93;43.88;101088.03;5077217;28;1406;-63
2021/07/22 09:16:46;;;;;;;;;;;;;;;27.93;43.96;101088.03;5100270;28;1156;-63
2021/07/22 09:19:32;;;;;;;;;;;;;;;27.93;44.21;101087.19;5097420;28;1442;-63
2021/07/22 09:22:00;;;;;;;;;;;;;;;27.93;44.44;101087.19;5083912;28;1333;-63
2021/07/22 09:24:27;;;;;;;;;;;;;;;28.00;45.40;101088.28;5086593;28;1373;-63
2021/07/22 09:26:56;;;;;;;;;;;;;;;28.05;45.47;101092.31;5083024;28;1257;-64
2021/07/22 09:29:23;;;;;;;;;;;;;;;27.95;46.06;101069.97;5082715;28;1240;-63
